createdAt,value
2022-12-04T00:02:55.920Z,76.08
2022-12-04T00:06:59.273Z,75.82
2022-12-04T00:11:03.113Z,75.66
2022-12-04T00:19:32.561Z,75.40
2022-12-04T00:23:36.638Z,75.38
2022-12-04T00:27:40.227Z,75.95
2022-12-04T00:31:43.930Z,75.76
2022-12-04T00:35:49.057Z,76.32
2022-12-04T00:39:52.849Z,75.96
2022-12-04T00:43:56.120Z,75.96
2022-12-04T00:47:59.597Z,76.00
2022-12-04T00:52:04.625Z,75.60
2022-12-04T00:56:09.569Z,75.58
2022-12-04T01:00:13.492Z,75.36
2022-12-04T01:04:17.100Z,74.89
2022-12-04T01:08:23.947Z,74.61
2022-12-04T01:12:27.653Z,75.19
2022-12-04T01:16:34.114Z,74.85
2022-12-04T01:20:37.769Z,75.11
2022-12-04T01:24:42.882Z,75.03
2022-12-04T01:28:47.833Z,74.57
2022-12-04T01:32:51.443Z,74.87
2022-12-04T01:36:55.020Z,74.72
2022-12-04T01:40:59.944Z,74.44
2022-12-04T01:45:39.174Z,74.66
2022-12-04T01:49:46.939Z,74.80
2022-12-04T01:53:54.694Z,74.32
2022-12-04T01:57:59.589Z,74.04
2022-12-04T02:02:07.387Z,73.88
2022-12-04T02:06:11.044Z,73.84
2022-12-04T02:10:15.441Z,74.29
2022-12-04T02:14:32.848Z,73.51
2022-12-04T02:18:42.918Z,73.78
2022-12-04T02:23:07.964Z,74.27
2022-12-04T02:27:20.385Z,73.84
2022-12-04T02:31:33.616Z,73.84
2022-12-04T02:35:41.741Z,74.31
2022-12-04T02:39:53.573Z,74.66
2022-12-04T02:44:03.405Z,74.49
2022-12-04T02:48:09.524Z,74.44
2022-12-04T02:52:16.397Z,74.62
2022-12-04T02:56:25.750Z,74.77
2022-12-04T03:00:31.003Z,75.15
2022-12-04T03:04:37.538Z,75.22
2022-12-04T03:08:45.640Z,75.57
2022-12-04T03:12:54.117Z,75.37
2022-12-04T03:17:03.642Z,75.13
2022-12-04T03:21:12.803Z,74.34
2022-12-04T03:25:16.739Z,74.82
2022-12-04T03:29:23.228Z,74.62
2022-12-04T03:33:32.609Z,75.25
2022-12-04T03:37:42.402Z,74.88
2022-12-04T03:41:57.045Z,74.72
2022-12-04T03:46:06.231Z,73.92
2022-12-04T03:50:15.108Z,74.23
2022-12-04T03:54:23.832Z,74.46
2022-12-04T03:58:32.196Z,74.36
2022-12-04T04:02:41.732Z,74.14
2022-12-04T04:06:48.863Z,74.18
2022-12-04T04:10:57.386Z,73.87
2022-12-04T04:15:21.975Z,73.59
2022-12-04T04:19:46.711Z,74.22
2022-12-04T04:24:10.486Z,74.40
2022-12-04T04:28:34.581Z,74.16
2022-12-04T04:32:42.722Z,73.74
2022-12-04T04:36:56.528Z,74.43
2022-12-04T04:41:02.901Z,74.10
2022-12-04T04:45:14.666Z,74.19
2022-12-04T04:49:21.134Z,74.27
2022-12-04T04:53:32.077Z,74.11
2022-12-04T04:57:37.943Z,73.62
2022-12-04T05:01:44.531Z,73.80
2022-12-04T05:05:48.190Z,73.92
2022-12-04T05:09:51.693Z,74.21
2022-12-04T05:13:55.243Z,74.01
2022-12-04T05:17:59.938Z,73.84
2022-12-04T05:22:03.397Z,73.47
2022-12-04T05:26:07.570Z,73.45
2022-12-04T05:30:13.701Z,72.79
2022-12-04T05:34:18.329Z,72.78
2022-12-04T05:38:21.838Z,73.13
2022-12-04T05:42:25.267Z,73.64
2022-12-04T05:46:28.292Z,72.91
2022-12-04T05:50:32.862Z,73.66
2022-12-04T05:54:36.370Z,73.01
2022-12-04T05:58:40.682Z,73.13
2022-12-04T06:02:44.196Z,73.08
2022-12-04T06:06:48.936Z,73.36
2022-12-04T06:10:52.392Z,73.23
2022-12-04T06:14:55.972Z,73.18
2022-12-04T06:19:02.754Z,73.14
2022-12-04T06:23:07.627Z,72.53
2022-12-04T06:27:27.202Z,72.77
2022-12-04T06:31:34.158Z,72.69
2022-12-04T06:35:37.241Z,72.61
2022-12-04T06:39:42.178Z,73.27
2022-12-04T06:43:46.036Z,72.94
2022-12-04T06:47:49.145Z,73.05
2022-12-04T06:51:52.839Z,73.17
2022-12-04T06:55:59.614Z,72.66
2022-12-04T07:00:04.087Z,72.75
2022-12-04T07:04:07.186Z,72.17
2022-12-04T07:08:10.969Z,72.46
2022-12-04T07:12:15.601Z,72.58
2022-12-04T07:16:23.543Z,71.99
2022-12-04T07:20:27.393Z,71.70
2022-12-04T07:24:31.042Z,71.17
2022-12-04T07:28:36.100Z,70.66
2022-12-04T07:32:39.825Z,70.28
2022-12-04T07:36:43.428Z,70.54
2022-12-04T07:40:46.985Z,69.92
2022-12-04T07:44:51.413Z,70.59
2022-12-04T07:48:56.769Z,69.27
2022-12-04T07:53:00.482Z,69.21
2022-12-04T07:57:04.166Z,68.61
2022-12-04T08:01:12.627Z,68.15
2022-12-04T08:05:16.104Z,68.96
2022-12-04T08:09:19.724Z,68.54
2022-12-04T08:13:23.865Z,68.55
2022-12-04T08:17:30.606Z,67.60
2022-12-04T08:21:34.510Z,67.13
2022-12-04T08:25:40.615Z,67.17
2022-12-04T08:29:44.662Z,66.76
2022-12-04T08:33:51.012Z,66.58
2022-12-04T08:37:54.621Z,65.14
2022-12-04T08:41:58.022Z,64.87
2022-12-04T08:46:02.545Z,63.75
2022-12-04T08:50:09.216Z,64.57
2022-12-04T08:54:15.287Z,63.74
2022-12-04T08:58:18.640Z,63.23
2022-12-04T09:02:22.645Z,63.02
2022-12-04T09:06:28.320Z,62.82
2022-12-04T09:10:31.933Z,63.09
2022-12-04T09:14:35.517Z,64.20
2022-12-04T09:18:40.618Z,65.06
2022-12-04T09:23:03.508Z,66.11
2022-12-04T09:27:14.348Z,65.57
2022-12-04T09:31:20.057Z,65.85
2022-12-04T09:35:23.476Z,66.04
2022-12-04T09:39:27.859Z,66.37
2022-12-04T09:43:34.305Z,66.98
2022-12-04T09:47:43.391Z,67.60
2022-12-04T09:51:47.577Z,67.81
2022-12-04T09:55:57.973Z,68.22
2022-12-04T10:00:01.244Z,68.20
2022-12-04T10:04:06.629Z,68.77
2022-12-04T10:08:17.547Z,68.73
2022-12-04T10:12:29.705Z,68.69
2022-12-04T10:16:43.900Z,68.80
2022-12-04T10:21:03.078Z,68.55
2022-12-04T10:25:15.234Z,68.63
2022-12-04T10:29:24.452Z,67.84
2022-12-04T10:33:38.747Z,67.76
2022-12-04T10:37:43.719Z,67.51
2022-12-04T10:41:53.912Z,67.07
2022-12-04T10:45:59.304Z,66.97
2022-12-04T10:50:14.395Z,67.51
2022-12-04T10:54:23.309Z,67.98
2022-12-04T10:58:27.705Z,66.79
2022-12-04T11:02:35.247Z,67.50
2022-12-04T11:06:40.328Z,67.11
2022-12-04T11:10:45.606Z,66.56
2022-12-04T11:14:48.902Z,67.00
2022-12-04T11:18:53.636Z,67.01
2022-12-04T11:22:59.233Z,67.41
2022-12-04T11:27:03.867Z,67.45
2022-12-04T11:31:08.685Z,67.62
2022-12-04T11:35:19.102Z,67.79
2022-12-04T11:39:30.228Z,67.97
2022-12-04T11:43:34.880Z,67.95
2022-12-04T11:47:38.461Z,67.95
2022-12-04T11:51:56.206Z,68.17
2022-12-04T11:56:22.624Z,68.43
2022-12-04T12:00:27.719Z,68.09
2022-12-04T12:05:01.965Z,68.28
2022-12-04T12:09:25.430Z,68.48
2022-12-04T12:13:37.075Z,68.43
2022-12-04T12:17:48.730Z,68.15
2022-12-04T12:22:03.445Z,68.33
2022-12-04T12:26:15.273Z,67.91
2022-12-04T12:30:20.966Z,68.07
2022-12-04T12:34:37.963Z,67.88
2022-12-04T12:38:46.194Z,68.05
2022-12-04T12:42:58.660Z,68.16
2022-12-04T12:47:08.767Z,68.55
2022-12-04T12:51:29.950Z,68.58
2022-12-04T12:55:38.212Z,68.03
2022-12-04T12:59:48.588Z,67.98
2022-12-04T13:03:58.467Z,68.16
2022-12-04T13:08:15.938Z,68.58
2022-12-04T13:12:21.415Z,67.96
2022-12-04T13:16:34.205Z,68.02
2022-12-04T13:20:44.255Z,68.83
2022-12-04T13:25:09.968Z,68.61
2022-12-04T13:29:28.208Z,68.96
2022-12-04T13:34:14.819Z,68.99
2022-12-04T13:38:29.890Z,69.11
2022-12-04T13:42:34.695Z,68.41
2022-12-04T13:46:41.158Z,68.23
2022-12-04T13:50:45.334Z,68.87
2022-12-04T13:55:00.433Z,68.58
2022-12-04T13:59:06.820Z,68.70
2022-12-04T14:03:27.153Z,68.95
2022-12-04T14:07:33.897Z,68.64
2022-12-04T14:11:48.046Z,68.60
2022-12-04T14:16:05.385Z,68.89
2022-12-04T14:20:23.088Z,68.52
2022-12-04T14:24:37.396Z,68.53
2022-12-04T14:28:45.797Z,68.47
2022-12-04T14:32:50.898Z,68.83
2022-12-04T14:36:56.824Z,68.55
2022-12-04T14:41:01.757Z,68.57
2022-12-04T14:45:19.084Z,68.44
2022-12-04T14:49:31.962Z,68.42
2022-12-04T14:53:39.542Z,68.74
2022-12-04T14:57:51.981Z,68.26
2022-12-04T15:02:00.417Z,68.74
2022-12-04T15:06:06.054Z,68.71
2022-12-04T15:10:38.506Z,69.01
2022-12-04T15:14:47.518Z,68.88
2022-12-04T15:19:01.397Z,68.81
2022-12-04T15:23:05.566Z,68.75
2022-12-04T15:27:09.646Z,68.96
2022-12-04T15:31:19.037Z,69.15
2022-12-04T15:35:28.922Z,69.11
2022-12-04T15:39:35.390Z,69.03
2022-12-04T15:43:43.406Z,69.22
2022-12-04T15:52:10.279Z,69.50
2022-12-04T15:56:19.371Z,69.83
2022-12-04T16:00:29.099Z,69.77
2022-12-04T16:04:38.836Z,70.21
2022-12-04T16:08:48.125Z,70.39
2022-12-04T16:12:55.026Z,70.29
2022-12-04T16:17:05.865Z,70.09
2022-12-04T16:21:17.334Z,70.51
2022-12-04T16:25:22.379Z,70.71
2022-12-04T16:29:25.649Z,70.48
2022-12-04T16:33:31.334Z,70.75
2022-12-04T16:37:40.160Z,71.13
2022-12-04T16:41:45.435Z,71.05
2022-12-04T16:45:53.241Z,71.43
2022-12-04T16:49:56.304Z,71.40
2022-12-04T16:53:59.963Z,71.33
2022-12-04T16:58:05.903Z,71.54
2022-12-04T17:02:29.513Z,71.34
2022-12-04T17:06:33.674Z,71.69
2022-12-04T17:10:51.978Z,71.13
2022-12-04T17:14:57.391Z,71.43
2022-12-04T17:19:01.145Z,71.50
2022-12-04T17:23:05.631Z,71.44
2022-12-04T17:27:13.677Z,71.35
2022-12-04T17:31:22.694Z,71.29
2022-12-04T17:35:26.616Z,71.40
2022-12-04T17:39:30.274Z,71.49
2022-12-04T17:43:33.874Z,71.18
2022-12-04T17:47:39.318Z,71.31
2022-12-04T17:51:43.058Z,71.55
2022-12-04T17:55:50.884Z,71.51
2022-12-04T17:59:54.642Z,71.49
2022-12-04T18:04:02.092Z,71.23
2022-12-04T18:08:14.676Z,71.32
2022-12-04T18:12:18.477Z,71.14
2022-12-04T18:16:21.754Z,70.95
2022-12-04T18:20:27.117Z,71.57
2022-12-04T18:24:30.638Z,70.85
2022-12-04T18:28:34.741Z,70.88
2022-12-04T18:32:37.888Z,71.19
2022-12-04T18:36:45.867Z,71.34
2022-12-04T18:40:50.534Z,71.28
2022-12-04T18:44:54.437Z,71.04
2022-12-04T18:49:00.695Z,71.10
2022-12-04T18:53:05.513Z,71.19
2022-12-04T18:57:09.812Z,70.81
2022-12-04T19:01:19.277Z,71.14
2022-12-04T19:05:23.388Z,71.25
2022-12-04T19:10:02.563Z,71.40
2022-12-04T19:13:55.456Z,71.27
2022-12-04T19:17:58.997Z,70.97
2022-12-04T19:22:02.956Z,71.01
2022-12-04T19:26:10.897Z,70.86
2022-12-04T19:30:16.387Z,70.90
2022-12-04T19:34:23.559Z,70.88
2022-12-04T19:38:27.161Z,71.06
2022-12-04T19:42:34.395Z,70.62
2022-12-04T19:46:38.163Z,70.69
2022-12-04T19:50:43.519Z,70.49
2022-12-04T19:54:47.439Z,71.26
2022-12-04T19:58:58.420Z,70.83
2022-12-04T20:03:02.915Z,71.04
2022-12-04T20:07:08.144Z,71.35
2022-12-04T20:11:16.289Z,71.01
2022-12-04T20:15:20.748Z,70.93
2022-12-04T20:19:27.450Z,71.13
2022-12-04T20:23:31.961Z,70.95
2022-12-04T20:27:37.207Z,71.34
2022-12-04T20:31:45.988Z,71.43
2022-12-04T20:35:49.679Z,71.08
2022-12-04T20:39:53.158Z,70.92
2022-12-04T20:43:57.276Z,71.00
2022-12-04T20:48:01.900Z,70.43
2022-12-04T20:52:06.144Z,71.16
2022-12-04T20:56:09.953Z,70.42
2022-12-04T21:00:15.135Z,70.82
2022-12-04T21:04:20.745Z,71.04
2022-12-04T21:08:53.889Z,70.65
2022-12-04T21:13:14.994Z,70.72
2022-12-04T21:17:20.956Z,70.68
2022-12-04T21:21:27.548Z,71.01
2022-12-04T21:25:31.293Z,70.94
2022-12-04T21:29:35.788Z,71.28
2022-12-04T21:33:39.600Z,71.26
2022-12-04T21:37:44.213Z,71.58
2022-12-04T21:42:01.583Z,71.48
2022-12-04T21:46:09.548Z,71.36
2022-12-04T21:50:13.685Z,71.91
2022-12-04T21:54:18.757Z,72.08
2022-12-04T21:58:23.703Z,71.46
2022-12-04T22:02:27.210Z,71.52
2022-12-04T22:06:33.724Z,71.68
2022-12-04T22:10:42.087Z,71.58
2022-12-04T22:14:45.593Z,71.62
2022-12-04T22:18:48.610Z,72.08
2022-12-04T22:22:52.036Z,72.58
2022-12-04T22:26:56.454Z,73.50
2022-12-04T22:31:04.161Z,73.39
2022-12-04T22:35:08.256Z,72.58
2022-12-04T22:39:11.647Z,73.32
2022-12-04T22:43:16.505Z,72.83
2022-12-04T22:47:20.048Z,73.50
2022-12-04T22:51:24.157Z,73.45
2022-12-04T22:55:28.684Z,72.60
2022-12-04T22:59:33.547Z,73.49
2022-12-04T23:03:36.976Z,74.24
2022-12-04T23:07:40.372Z,74.46
2022-12-04T23:11:44.606Z,75.34
2022-12-04T23:15:50.758Z,74.68
2022-12-04T23:19:54.516Z,74.34
2022-12-04T23:23:59.314Z,73.51
2022-12-04T23:28:02.921Z,73.70
2022-12-04T23:32:08.017Z,73.52
2022-12-04T23:36:13.336Z,73.70
2022-12-04T23:40:17.004Z,73.58
2022-12-04T23:44:20.369Z,73.58
2022-12-04T23:48:25.354Z,74.62
2022-12-04T23:52:28.867Z,74.73
2022-12-04T23:56:33.085Z,74.48
